createdAt,value
2022-08-22T00:00:58.138Z,1.10
2022-08-22T00:02:56.359Z,1.30
2022-08-22T00:04:14.416Z,1.00
2022-08-22T00:07:49.562Z,1.20
2022-08-22T00:11:25.843Z,1.20
2022-08-22T00:15:00.569Z,1.50
2022-08-22T00:18:32.682Z,1.80
2022-08-22T00:21:57.714Z,2.80
2022-08-22T00:25:03.415Z,2.50
2022-08-22T00:28:13.562Z,2.50
2022-08-22T00:31:26.530Z,2.30
2022-08-22T00:35:01.494Z,1.90
2022-08-22T00:38:18.453Z,2.30
2022-08-22T00:41:56.220Z,3.40
2022-08-22T00:45:31.911Z,2.50
2022-08-22T00:48:55.413Z,3.40
2022-08-22T00:51:58.292Z,3.60
2022-08-22T00:55:17.354Z,3.30
2022-08-22T00:58:46.419Z,2.50
2022-08-22T01:02:24.999Z,2.90
2022-08-22T01:05:30.433Z,5.10
2022-08-22T01:09:01.093Z,2.40
2022-08-22T01:12:03.881Z,3.00
2022-08-22T01:15:13.873Z,3.50
2022-08-22T01:18:46.662Z,2.80
2022-08-22T01:22:12.538Z,3.20
2022-08-22T01:25:53.683Z,3.40
2022-08-22T01:29:34.490Z,2.80
2022-08-22T01:32:43.341Z,4.70
2022-08-22T01:36:07.579Z,3.00
2022-08-22T01:39:41.428Z,4.20
2022-08-22T01:42:54.898Z,4.90
2022-08-22T01:46:24.228Z,4.70
2022-08-22T01:50:05.850Z,5.40
2022-08-22T01:53:22.895Z,3.40
2022-08-22T01:56:31.592Z,5.30
2022-08-22T01:59:42.428Z,6.40
2022-08-22T02:02:51.755Z,4.00
2022-08-22T02:06:10.158Z,3.80
2022-08-22T02:09:33.697Z,4.50
2022-08-22T02:13:24.778Z,6.70
2022-08-22T02:16:41.209Z,4.00
2022-08-22T02:19:57.929Z,4.70
2022-08-22T02:23:15.755Z,5.60
2022-08-22T02:26:28.789Z,3.80
2022-08-22T02:29:46.770Z,3.80
2022-08-22T02:33:01.001Z,4.60
2022-08-22T02:36:20.643Z,5.20
2022-08-22T02:39:32.352Z,6.00
2022-08-22T02:42:45.058Z,6.60
2022-08-22T02:46:32.509Z,5.60
2022-08-22T02:49:53.721Z,5.80
2022-08-22T02:53:09.383Z,5.60
2022-08-22T02:56:22.394Z,5.20
2022-08-22T02:59:35.300Z,6.10
2022-08-22T03:02:45.323Z,8.00
2022-08-22T03:05:59.118Z,5.80
2022-08-22T03:09:23.265Z,6.30
2022-08-22T03:12:55.768Z,8.00
2022-08-22T03:16:09.336Z,8.50
2022-08-22T03:19:43.833Z,7.40
2022-08-22T03:23:05.398Z,7.80
2022-08-22T03:26:14.336Z,8.80
2022-08-22T03:29:25.110Z,9.40
2022-08-22T03:33:13.112Z,8.50
2022-08-22T03:36:15.927Z,10.40
2022-08-22T03:39:39.403Z,10.50
2022-08-22T03:43:19.636Z,10.20
2022-08-22T03:46:40.982Z,9.80
2022-08-22T03:50:17.843Z,11.00
2022-08-22T03:53:42.375Z,11.40
2022-08-22T03:57:09.189Z,11.90
2022-08-22T04:00:50.821Z,10.80
2022-08-22T04:03:58.919Z,8.70
2022-08-22T04:07:32.283Z,9.50
2022-08-22T04:11:03.822Z,8.80
2022-08-22T04:14:24.184Z,8.10
2022-08-22T04:17:34.629Z,9.60
2022-08-22T04:21:12.031Z,10.40
2022-08-22T04:24:48.484Z,9.30
2022-08-22T04:28:10.099Z,9.40
2022-08-22T04:31:17.247Z,10.00
2022-08-22T04:34:29.630Z,9.90
2022-08-22T04:37:44.742Z,8.60
2022-08-22T04:40:59.449Z,9.30
2022-08-22T04:44:11.336Z,10.40
2022-08-22T04:47:40.209Z,13.10
2022-08-22T04:50:49.216Z,10.20
2022-08-22T04:54:23.690Z,10.00
2022-08-22T04:57:54.330Z,13.20
2022-08-22T05:01:06.000Z,12.70
2022-08-22T05:04:18.416Z,13.10
2022-08-22T05:07:27.282Z,11.40
2022-08-22T05:10:40.633Z,13.80
2022-08-22T05:13:55.129Z,17.30
2022-08-22T05:17:00.366Z,12.50
2022-08-22T05:20:09.438Z,13.20
2022-08-22T05:23:29.529Z,12.30
2022-08-22T05:26:44.589Z,13.70
2022-08-22T05:29:51.223Z,12.90
2022-08-22T05:33:16.591Z,15.40
2022-08-22T05:36:25.392Z,14.50
2022-08-22T05:39:30.150Z,13.20
2022-08-22T05:42:37.568Z,12.90
2022-08-22T05:45:46.927Z,13.50
2022-08-22T05:49:21.027Z,13.60
2022-08-22T05:52:59.182Z,8.10
2022-08-22T05:56:18.520Z,16.30
2022-08-22T05:59:32.945Z,11.40
2022-08-22T06:03:13.605Z,9.00
2022-08-22T06:06:21.472Z,13.60
2022-08-22T06:09:35.052Z,12.50
2022-08-22T06:12:51.001Z,15.70
2022-08-22T06:15:57.256Z,14.00
2022-08-22T06:19:00.700Z,12.50
2022-08-22T06:22:05.086Z,15.10
2022-08-22T06:25:14.345Z,15.40
2022-08-22T06:28:25.853Z,16.00
2022-08-22T06:31:47.575Z,8.80
2022-08-22T06:34:57.600Z,8.00
2022-08-22T06:38:01.504Z,5.60
2022-08-22T06:41:08.671Z,6.90
2022-08-22T06:44:15.885Z,5.50
2022-08-22T06:47:26.106Z,5.60
2022-08-22T06:50:36.905Z,6.50
2022-08-22T06:53:48.472Z,4.80
2022-08-22T06:56:55.586Z,7.90
2022-08-22T07:00:08.672Z,5.60
2022-08-22T07:03:37.453Z,4.80
2022-08-22T07:06:50.760Z,5.00
2022-08-22T07:09:56.576Z,5.10
2022-08-22T07:13:00.094Z,6.40
2022-08-22T07:16:17.839Z,6.40
2022-08-22T07:19:45.689Z,4.70
2022-08-22T07:23:08.430Z,4.20
2022-08-22T07:26:48.433Z,7.00
2022-08-22T07:30:10.286Z,6.50
2022-08-22T07:36:47.779Z,5.10
2022-08-22T07:40:03.728Z,6.20
2022-08-22T07:43:43.498Z,5.90
2022-08-22T07:47:01.434Z,4.70
2022-08-22T07:54:10.141Z,6.80
2022-08-22T07:57:24.954Z,5.80
2022-08-22T08:00:29.688Z,5.00
2022-08-22T08:03:32.968Z,4.50
2022-08-22T08:06:36.664Z,5.50
2022-08-22T08:09:47.120Z,4.90
2022-08-22T08:13:02.327Z,4.30
2022-08-22T08:16:10.833Z,5.50
2022-08-22T08:19:17.099Z,4.40
2022-08-22T08:22:26.022Z,5.50
2022-08-22T08:25:32.253Z,5.20
2022-08-22T08:28:41.530Z,4.50
2022-08-22T08:31:45.424Z,5.70
2022-08-22T08:34:48.911Z,6.20
2022-08-22T08:38:10.653Z,5.90
2022-08-22T08:41:41.717Z,5.70
2022-08-22T08:45:09.911Z,5.30
2022-08-22T08:48:31.611Z,4.60
2022-08-22T08:51:50.301Z,5.10
2022-08-22T08:55:21.688Z,5.80
2022-08-22T08:58:25.491Z,5.80
2022-08-22T09:01:44.311Z,6.20
2022-08-22T09:05:12.689Z,6.60
2022-08-22T09:08:35.491Z,6.10
2022-08-22T09:12:03.319Z,5.40
2022-08-22T09:15:38.917Z,7.30
2022-08-22T09:19:04.982Z,5.80
2022-08-22T09:22:50.074Z,6.00
2022-08-22T09:26:03.043Z,7.20
2022-08-22T09:29:07.942Z,6.50
2022-08-22T09:32:21.093Z,7.20
2022-08-22T09:35:26.907Z,6.90
2022-08-22T09:38:30.594Z,7.10
2022-08-22T09:41:44.433Z,6.10
2022-08-22T09:45:38.249Z,6.00
2022-08-22T09:48:57.714Z,7.40
2022-08-22T09:52:15.168Z,7.00
2022-08-22T09:55:35.435Z,9.70
2022-08-22T09:58:57.859Z,11.30
2022-08-22T10:02:24.835Z,8.00
2022-08-22T10:05:51.426Z,6.20
2022-08-22T10:09:10.595Z,6.60
2022-08-22T10:12:29.691Z,6.40
2022-08-22T10:15:42.687Z,11.50
2022-08-22T10:18:54.713Z,7.60
2022-08-22T10:22:17.290Z,7.70
2022-08-22T10:25:48.225Z,6.90
2022-08-22T10:28:56.046Z,5.40
2022-08-22T10:32:43.050Z,6.00
2022-08-22T10:36:01.968Z,6.00
2022-08-22T10:39:14.591Z,6.10
2022-08-22T10:42:28.677Z,4.50
2022-08-22T10:45:43.655Z,4.70
2022-08-22T10:48:58.682Z,4.20
2022-08-22T10:52:27.316Z,4.90
2022-08-22T10:55:32.347Z,4.80
2022-08-22T10:58:42.264Z,4.60
2022-08-22T11:02:15.924Z,5.10
2022-08-22T11:05:32.917Z,4.70
2022-08-22T11:08:50.763Z,5.60
2022-08-22T11:12:11.108Z,5.30
2022-08-22T11:15:34.800Z,5.00
2022-08-22T11:19:15.023Z,6.40
2022-08-22T11:22:34.934Z,6.00
2022-08-22T11:25:58.114Z,5.30
2022-08-22T11:29:38.783Z,4.70
2022-08-22T11:33:13.772Z,5.90
2022-08-22T11:36:41.630Z,9.60
2022-08-22T11:43:26.847Z,10.60
2022-08-22T11:46:39.599Z,7.30
2022-08-22T11:50:13.667Z,9.60
2022-08-22T11:53:26.455Z,9.60
2022-08-22T11:56:40.129Z,19.50
2022-08-22T12:00:11.559Z,28.40
2022-08-22T12:03:23.291Z,17.00
2022-08-22T12:06:48.442Z,9.00
2022-08-22T12:09:59.735Z,16.50
2022-08-22T12:13:17.094Z,16.10
2022-08-22T12:17:00.799Z,12.70
2022-08-22T12:20:18.881Z,9.40
2022-08-22T12:23:48.842Z,11.30
2022-08-22T12:26:55.305Z,10.10
2022-08-22T12:30:26.468Z,11.20
2022-08-22T12:33:55.047Z,10.20
2022-08-22T12:37:22.116Z,9.80
2022-08-22T12:40:31.579Z,11.00
2022-08-22T12:44:29.512Z,9.80
2022-08-22T12:48:12.118Z,10.10
2022-08-22T12:51:33.833Z,9.40
2022-08-22T12:55:06.022Z,10.70
2022-08-22T12:58:33.082Z,9.80
2022-08-22T13:01:44.848Z,11.40
2022-08-22T13:04:53.584Z,12.10
2022-08-22T13:08:04.525Z,15.20
2022-08-22T13:11:15.177Z,13.10
2022-08-22T13:14:28.220Z,13.30
2022-08-22T13:17:32.792Z,13.30
2022-08-22T13:20:43.467Z,14.90
2022-08-22T13:23:51.756Z,13.90
2022-08-22T13:27:05.872Z,15.50
2022-08-22T13:30:17.527Z,17.60
2022-08-22T13:33:30.852Z,12.80
2022-08-22T13:36:51.687Z,13.90
2022-08-22T13:40:01.893Z,14.80
2022-08-22T13:43:10.121Z,14.20
2022-08-22T13:46:13.387Z,13.00
2022-08-22T13:49:36.845Z,12.80
2022-08-22T13:53:00.806Z,14.70
2022-08-22T13:56:15.459Z,13.50
2022-08-22T13:59:50.265Z,14.10
2022-08-22T14:03:08.257Z,13.60
2022-08-22T14:06:36.898Z,14.40
2022-08-22T14:09:57.368Z,13.00
2022-08-22T14:13:00.346Z,12.60
2022-08-22T14:16:10.465Z,14.10
2022-08-22T14:19:38.287Z,13.40
2022-08-22T14:27:06.713Z,14.10
2022-08-22T14:30:20.380Z,16.70
2022-08-22T14:33:34.176Z,14.70
2022-08-22T14:37:16.299Z,15.40
2022-08-22T14:40:37.553Z,16.50
2022-08-22T14:44:28.269Z,16.30
2022-08-22T14:47:55.041Z,18.90
2022-08-22T14:51:21.337Z,16.90
2022-08-22T14:54:48.398Z,17.30
2022-08-22T14:58:08.435Z,18.10
2022-08-22T15:01:19.765Z,16.70
2022-08-22T15:04:47.062Z,17.40
2022-08-22T15:07:59.499Z,18.40
2022-08-22T15:11:27.339Z,19.40
2022-08-22T15:14:38.030Z,19.90
2022-08-22T15:17:50.710Z,18.30
2022-08-22T15:21:06.770Z,19.30
2022-08-22T15:24:14.310Z,19.10
2022-08-22T15:27:20.336Z,19.40
2022-08-22T15:30:54.142Z,19.20
2022-08-22T15:34:18.099Z,19.50
2022-08-22T15:37:21.541Z,18.60
2022-08-22T15:40:45.717Z,16.40
2022-08-22T15:44:00.631Z,17.00
2022-08-22T15:47:23.967Z,17.10
2022-08-22T15:50:35.943Z,15.20
2022-08-22T15:53:45.083Z,13.90
2022-08-22T15:56:53.771Z,12.20
2022-08-22T16:00:10.633Z,11.60
2022-08-22T16:03:28.216Z,11.10
2022-08-22T16:06:43.495Z,11.60
2022-08-22T16:09:50.821Z,9.80
2022-08-22T16:13:15.167Z,9.90
2022-08-22T16:16:49.806Z,9.60
2022-08-22T16:20:07.909Z,7.10
2022-08-22T16:23:13.252Z,7.30
2022-08-22T16:26:18.898Z,7.10
2022-08-22T16:29:30.831Z,7.90
2022-08-22T16:32:39.880Z,7.70
2022-08-22T16:36:20.125Z,4.80
2022-08-22T16:39:23.139Z,6.00
2022-08-22T16:42:46.793Z,4.90
2022-08-22T16:45:50.597Z,7.20
2022-08-22T16:49:02.087Z,7.30
2022-08-22T16:52:26.506Z,6.50
2022-08-22T16:55:29.722Z,6.70
2022-08-22T16:59:19.334Z,6.30
2022-08-22T17:03:03.696Z,9.40
2022-08-22T17:06:34.384Z,8.10
2022-08-22T17:09:49.546Z,6.30
2022-08-22T17:13:06.322Z,5.40
2022-08-22T17:16:18.423Z,5.60
2022-08-22T17:22:40.669Z,6.70
2022-08-22T17:25:54.007Z,7.20
2022-08-22T17:28:56.933Z,9.70
2022-08-22T17:32:21.794Z,6.90
2022-08-22T17:35:41.073Z,6.90
2022-08-22T17:39:04.761Z,6.20
2022-08-22T17:42:26.611Z,6.50
2022-08-22T17:45:49.636Z,5.90
2022-08-22T17:49:11.350Z,8.30
2022-08-22T17:52:35.287Z,7.50
2022-08-22T17:55:59.441Z,7.70
2022-08-22T17:59:53.996Z,7.50
2022-08-22T18:03:02.840Z,5.80
2022-08-22T18:06:16.752Z,5.60
2022-08-22T18:09:32.014Z,7.50
2022-08-22T18:12:51.779Z,6.30
2022-08-22T18:16:01.193Z,6.10
2022-08-22T18:19:12.509Z,7.40
2022-08-22T18:22:36.721Z,8.90
2022-08-22T18:25:45.807Z,8.10
2022-08-22T18:29:00.898Z,9.30
2022-08-22T18:32:25.502Z,7.50
2022-08-22T18:35:53.796Z,9.60
2022-08-22T18:39:03.699Z,10.20
2022-08-22T18:42:18.055Z,12.70
2022-08-22T18:45:48.362Z,11.40
2022-08-22T18:49:14.166Z,13.20
2022-08-22T18:52:21.278Z,13.50
2022-08-22T18:55:33.726Z,10.20
2022-08-22T18:59:13.720Z,10.30
2022-08-22T19:02:55.876Z,10.90
2022-08-22T19:06:28.396Z,10.20
2022-08-22T19:10:05.216Z,10.60
2022-08-22T19:13:49.248Z,12.10
2022-08-22T19:17:18.399Z,12.00
2022-08-22T19:20:49.380Z,11.60
2022-08-22T19:23:57.401Z,14.00
2022-08-22T19:27:08.652Z,13.90
2022-08-22T19:30:35.066Z,12.60
2022-08-22T19:33:42.102Z,10.80
2022-08-22T19:37:06.116Z,10.00
2022-08-22T19:40:13.150Z,11.10
2022-08-22T19:43:30.845Z,14.40
2022-08-22T19:46:41.750Z,13.00
2022-08-22T19:50:01.646Z,13.40
2022-08-22T19:53:34.140Z,17.00
2022-08-22T19:57:00.005Z,16.70
2022-08-22T20:00:12.116Z,16.00
2022-08-22T20:03:49.186Z,14.70
2022-08-22T20:07:14.722Z,15.60
2022-08-22T20:10:59.771Z,16.50
2022-08-22T20:14:36.469Z,14.20
2022-08-22T20:17:43.659Z,15.20
2022-08-22T20:21:00.090Z,14.30
2022-08-22T20:24:14.233Z,16.10
2022-08-22T20:30:37.316Z,14.10
2022-08-22T20:33:46.038Z,14.10
2022-08-22T20:36:59.737Z,16.90
2022-08-22T20:40:57.043Z,17.80
2022-08-22T20:44:29.580Z,16.40
2022-08-22T20:47:40.837Z,14.60
2022-08-22T20:50:45.298Z,12.90
2022-08-22T20:53:57.769Z,13.10
2022-08-22T20:57:18.304Z,13.40
2022-08-22T21:00:24.901Z,13.30
2022-08-22T21:03:33.813Z,14.70
2022-08-22T21:06:38.513Z,13.70
2022-08-22T21:10:00.173Z,12.60
2022-08-22T21:13:05.808Z,14.50
2022-08-22T21:16:13.859Z,15.10
2022-08-22T21:19:19.925Z,12.90
2022-08-22T21:22:32.179Z,11.60
2022-08-22T21:29:13.039Z,14.10
2022-08-22T21:32:36.693Z,11.60
2022-08-22T21:35:39.862Z,14.10
2022-08-22T21:39:03.762Z,16.40
2022-08-22T21:42:11.432Z,15.20
2022-08-22T21:45:41.746Z,11.60
2022-08-22T21:48:59.544Z,13.10
2022-08-22T21:52:02.661Z,13.30
2022-08-22T21:55:12.943Z,11.30
2022-08-22T21:58:36.288Z,12.70
2022-08-22T22:01:38.727Z,13.50
2022-08-22T22:04:45.844Z,16.30
2022-08-22T22:07:48.746Z,15.40
2022-08-22T22:10:54.540Z,16.20
2022-08-22T22:13:57.448Z,16.40
2022-08-22T22:17:00.475Z,17.00
2022-08-22T22:20:04.750Z,10.30
2022-08-22T22:23:21.104Z,6.60
2022-08-22T22:26:24.473Z,5.90
2022-08-22T22:29:27.519Z,6.50
2022-08-22T22:32:30.536Z,9.90
2022-08-22T22:35:34.309Z,6.80
2022-08-22T22:38:39.077Z,7.50
2022-08-22T22:41:42.232Z,6.10
2022-08-22T22:44:47.511Z,8.20
2022-08-22T22:47:50.663Z,6.90
2022-08-22T22:50:54.019Z,7.90
2022-08-22T22:53:57.041Z,7.30
2022-08-22T22:56:59.905Z,6.00
2022-08-22T23:00:06.751Z,7.60
2022-08-22T23:03:10.210Z,9.70
2022-08-22T23:06:19.989Z,7.10
2022-08-22T23:09:38.528Z,7.20
2022-08-22T23:12:47.073Z,7.90
2022-08-22T23:15:50.029Z,5.70
2022-08-22T23:18:53.215Z,6.50
2022-08-22T23:21:57.896Z,6.40
2022-08-22T23:25:00.814Z,10.40
2022-08-22T23:28:04.140Z,4.80
2022-08-22T23:31:10.120Z,5.60
2022-08-22T23:34:15.215Z,6.50
2022-08-22T23:37:22.564Z,6.00
2022-08-22T23:40:25.491Z,6.10
2022-08-22T23:43:28.441Z,4.90
2022-08-22T23:46:31.427Z,6.60
2022-08-22T23:49:36.725Z,11.40
2022-08-22T23:52:39.703Z,7.70
2022-08-22T23:55:42.651Z,6.00
2022-08-22T23:58:45.528Z,6.50
